createdAt,value
2019-02-19T00:02:30.653Z,68.03
2019-02-19T00:07:34.062Z,68.26
2019-02-19T00:12:37.490Z,68.11
2019-02-19T00:17:40.896Z,67.52
2019-02-19T00:22:44.300Z,67.96
2019-02-19T00:27:47.717Z,67.81
2019-02-19T00:32:51.147Z,67.74
2019-02-19T00:37:54.534Z,68.44
2019-02-19T00:42:57.993Z,68.82
2019-02-19T00:48:01.491Z,66.92
2019-02-19T00:53:04.930Z,67.75
2019-02-19T00:58:08.409Z,68.62
2019-02-19T01:03:11.798Z,69.32
2019-02-19T01:08:15.264Z,68.51
2019-02-19T01:13:18.633Z,66.62
2019-02-19T01:18:22.138Z,68.22
2019-02-19T01:23:25.533Z,67.95
2019-02-19T01:28:28.978Z,68.24
2019-02-19T01:33:32.362Z,69.20
2019-02-19T01:38:35.768Z,67.87
2019-02-19T01:43:39.182Z,68.12
2019-02-19T01:48:42.624Z,68.22
2019-02-19T01:53:46.031Z,69.02
2019-02-19T01:58:49.586Z,68.31
2019-02-19T02:03:53.083Z,67.29
2019-02-19T02:08:56.443Z,67.13
2019-02-19T02:13:59.971Z,67.35
2019-02-19T02:19:03.452Z,67.53
2019-02-19T02:24:06.957Z,68.17
2019-02-19T02:29:10.520Z,69.31
2019-02-19T02:34:13.932Z,69.30
2019-02-19T02:39:17.404Z,68.60
2019-02-19T02:44:20.803Z,69.06
2019-02-19T02:49:24.261Z,69.18
2019-02-19T02:54:27.804Z,70.29
2019-02-19T02:59:31.294Z,69.82
2019-02-19T03:04:34.901Z,68.73
2019-02-19T03:09:38.543Z,69.17
2019-02-19T03:14:42.205Z,68.93
2019-02-19T03:19:45.804Z,68.86
2019-02-19T03:24:49.265Z,68.16
2019-02-19T03:29:52.670Z,69.10
2019-02-19T03:34:56.110Z,69.32
2019-02-19T03:39:59.691Z,69.83
2019-02-19T03:45:03.132Z,68.29
2019-02-19T03:50:06.643Z,68.80
2019-02-19T03:55:10.135Z,68.27
2019-02-19T04:00:13.593Z,67.84
2019-02-19T04:05:17.245Z,69.13
2019-02-19T04:10:20.638Z,69.85
2019-02-19T04:15:24.091Z,68.52
2019-02-19T04:20:27.484Z,68.01
2019-02-19T04:25:31.003Z,70.25
2019-02-19T04:30:34.411Z,69.89
2019-02-19T04:35:37.880Z,70.26
2019-02-19T04:40:41.320Z,68.99
2019-02-19T04:45:44.742Z,69.75
2019-02-19T04:50:48.149Z,70.00
2019-02-19T04:55:51.714Z,68.80
2019-02-19T05:00:55.169Z,69.07
2019-02-19T05:05:58.678Z,69.04
2019-02-19T05:11:02.158Z,68.93
2019-02-19T05:16:05.605Z,67.94
2019-02-19T05:21:09.086Z,69.21
2019-02-19T05:26:12.629Z,67.91
2019-02-19T05:31:16.255Z,68.37
2019-02-19T05:36:19.805Z,69.21
2019-02-19T05:41:23.480Z,67.92
2019-02-19T05:46:27.022Z,69.35
2019-02-19T05:51:30.573Z,67.98
2019-02-19T05:56:34.141Z,68.91
2019-02-19T06:01:38.287Z,68.68
2019-02-19T06:06:41.962Z,68.12
2019-02-19T06:11:46.451Z,68.42
2019-02-19T06:16:58.066Z,69.65
2019-02-19T06:21:53.671Z,68.01
2019-02-19T06:26:58.453Z,68.45
2019-02-19T06:32:01.995Z,69.42
2019-02-19T06:37:05.507Z,69.31
2019-02-19T06:42:08.923Z,69.42
2019-02-19T06:47:12.729Z,69.46
2019-02-19T06:52:16.164Z,69.81
2019-02-19T06:57:19.564Z,68.62
2019-02-19T07:02:31.935Z,68.59
2019-02-19T07:07:35.385Z,69.91
2019-02-19T07:12:39.003Z,70.07
2019-02-19T07:17:42.642Z,69.92
2019-02-19T07:22:46.121Z,69.40
2019-02-19T07:27:49.674Z,69.87
2019-02-19T07:32:54.224Z,69.27
2019-02-19T07:37:57.779Z,69.81
2019-02-19T07:43:01.197Z,69.55
2019-02-19T07:48:04.714Z,69.61
2019-02-19T07:53:08.315Z,69.26
2019-02-19T07:58:11.756Z,69.11
2019-02-19T08:03:15.251Z,69.04
2019-02-19T08:08:18.768Z,68.58
2019-02-19T08:13:22.292Z,68.47
2019-02-19T08:18:25.852Z,68.25
2019-02-19T08:23:29.946Z,67.82
2019-02-19T08:28:32.827Z,67.90
2019-02-19T08:33:36.464Z,67.83
2019-02-19T08:38:39.920Z,67.50
2019-02-19T08:43:43.327Z,67.01
2019-02-19T08:48:46.752Z,65.77
2019-02-19T08:53:50.247Z,64.86
2019-02-19T08:58:53.684Z,64.80
2019-02-19T09:03:57.268Z,64.78
2019-02-19T09:09:00.804Z,64.40
2019-02-19T09:14:05.246Z,64.33
2019-02-19T09:19:08.649Z,63.66
2019-02-19T09:24:12.060Z,62.37
2019-02-19T09:29:15.443Z,61.54
2019-02-19T09:34:18.850Z,59.55
2019-02-19T09:39:22.352Z,59.37
2019-02-19T09:44:25.784Z,59.42
2019-02-19T09:49:29.212Z,59.44
2019-02-19T09:54:32.637Z,59.20
2019-02-19T09:59:36.168Z,57.73
2019-02-19T10:04:39.649Z,57.39
2019-02-19T10:09:43.039Z,57.19
2019-02-19T10:14:46.508Z,55.95
2019-02-19T10:19:49.892Z,55.80
2019-02-19T10:24:53.269Z,56.13
2019-02-19T10:29:56.672Z,55.51
2019-02-19T10:35:00.196Z,54.09
2019-02-19T10:40:03.690Z,53.39
2019-02-19T10:45:08.634Z,53.67
2019-02-19T10:50:12.095Z,52.94
2019-02-19T10:55:15.591Z,52.28
2019-02-19T11:00:19.100Z,50.64
2019-02-19T11:05:22.592Z,51.25
2019-02-19T11:10:25.952Z,50.36
2019-02-19T11:15:29.638Z,50.32
2019-02-19T11:20:33.121Z,49.85
2019-02-19T11:25:36.523Z,48.34
2019-02-19T11:30:39.967Z,48.43
2019-02-19T11:35:43.355Z,48.86
2019-02-19T11:40:46.765Z,49.37
2019-02-19T11:45:50.140Z,48.59
2019-02-19T11:50:53.590Z,49.08
2019-02-19T11:55:57.091Z,49.73
2019-02-19T12:01:00.495Z,49.34
2019-02-19T12:06:03.909Z,49.94
2019-02-19T12:11:07.332Z,49.97
2019-02-19T12:16:10.731Z,50.82
2019-02-19T12:21:14.198Z,49.53
2019-02-19T12:26:17.608Z,50.29
2019-02-19T12:31:21.014Z,49.93
2019-02-19T12:36:24.531Z,50.45
2019-02-19T12:41:27.931Z,50.45
2019-02-19T12:46:31.435Z,50.50
2019-02-19T12:51:34.821Z,49.51
2019-02-19T12:56:38.279Z,50.01
2019-02-19T13:01:42.103Z,50.80
2019-02-19T13:06:45.505Z,50.41
2019-02-19T13:11:48.905Z,50.98
2019-02-19T13:16:52.375Z,51.27
2019-02-19T13:21:55.787Z,51.30
2019-02-19T13:26:59.490Z,50.85
2019-02-19T13:32:02.984Z,50.85
2019-02-19T13:37:06.613Z,50.49
2019-02-19T13:42:10.025Z,50.24
2019-02-19T13:47:13.436Z,49.27
2019-02-19T13:52:23.482Z,48.61
2019-02-19T13:57:25.551Z,48.96
2019-02-19T14:02:29.120Z,49.20
2019-02-19T14:07:32.548Z,47.97
2019-02-19T14:12:36.032Z,48.59
2019-02-19T14:17:39.483Z,48.88
2019-02-19T14:22:47.973Z,48.92
2019-02-19T14:27:55.791Z,48.95
2019-02-19T14:35:05.578Z,49.32
2019-02-19T14:40:13.432Z,49.25
2019-02-19T14:45:25.057Z,49.20
2019-02-19T14:50:53.728Z,49.69
2019-02-19T14:58:07.478Z,49.41
2019-02-19T15:03:16.417Z,49.63
2019-02-19T15:08:25.084Z,50.34
2019-02-19T15:13:36.617Z,50.46
2019-02-19T15:18:49.107Z,51.24
2019-02-19T15:26:04.864Z,51.95
2019-02-19T15:31:13.597Z,51.94
2019-02-19T15:36:22.255Z,52.22
2019-02-19T15:41:30.928Z,52.23
2019-02-19T15:47:10.396Z,52.36
2019-02-19T15:52:37.919Z,53.03
2019-02-19T15:57:50.563Z,53.58
2019-02-19T16:02:58.288Z,53.30
2019-02-19T16:08:10.975Z,53.61
2019-02-19T16:13:19.568Z,54.15
2019-02-19T16:18:42.425Z,54.48
2019-02-19T16:23:57.175Z,54.51
2019-02-19T16:29:13.688Z,54.77
2019-02-19T16:34:21.348Z,55.01
2019-02-19T16:41:37.020Z,55.18
2019-02-19T16:46:51.567Z,55.49
2019-02-19T16:52:11.280Z,55.51
2019-02-19T16:57:25.018Z,55.89
2019-02-19T17:03:40.669Z,56.25
2019-02-19T17:08:49.111Z,56.55
2019-02-19T17:14:02.787Z,56.95
2019-02-19T17:19:13.251Z,57.34
2019-02-19T17:24:24.721Z,57.45
2019-02-19T17:29:33.349Z,57.77
2019-02-19T17:35:12.008Z,57.75
2019-02-19T17:40:24.564Z,57.96
2019-02-19T17:45:35.060Z,58.32
2019-02-19T17:50:45.552Z,58.81
2019-02-19T17:55:54.383Z,59.56
2019-02-19T18:01:03.073Z,60.24
2019-02-19T18:06:12.624Z,60.45
2019-02-19T18:11:21.425Z,61.23
2019-02-19T18:16:29.061Z,61.30
2019-02-19T18:21:32.617Z,61.82
2019-02-19T18:26:37.118Z,61.59
2019-02-19T18:31:40.829Z,61.78
2019-02-19T18:36:44.417Z,61.95
2019-02-19T18:41:47.984Z,61.96
2019-02-19T18:46:51.601Z,63.02
2019-02-19T18:51:55.320Z,62.56
2019-02-19T18:56:58.850Z,62.98
2019-02-19T19:02:02.434Z,63.33
2019-02-19T19:07:05.876Z,64.26
2019-02-19T19:12:09.332Z,64.69
2019-02-19T19:17:12.983Z,64.97
2019-02-19T19:22:17.088Z,64.75
2019-02-19T19:27:21.474Z,65.24
2019-02-19T19:32:25.233Z,66.92
2019-02-19T19:37:30.052Z,65.70
2019-02-19T19:42:33.519Z,65.61
2019-02-19T19:47:37.177Z,65.70
2019-02-19T19:52:41.257Z,68.56
2019-02-19T19:57:45.065Z,67.99
2019-02-19T20:02:48.807Z,67.65
2019-02-19T20:07:53.232Z,67.89
2019-02-19T20:12:57.025Z,66.60
2019-02-19T20:18:01.460Z,67.43
2019-02-19T20:23:05.221Z,67.90
2019-02-19T20:28:08.966Z,69.17
2019-02-19T20:33:13.058Z,69.46
2019-02-19T20:38:16.993Z,68.55
2019-02-19T20:43:21.163Z,68.97
2019-02-19T20:48:24.806Z,67.70
2019-02-19T20:53:29.215Z,68.02
2019-02-19T20:58:33.975Z,68.31
2019-02-19T21:03:36.755Z,70.32
2019-02-19T21:08:40.495Z,67.95
2019-02-19T21:13:44.383Z,67.64
2019-02-19T21:18:47.915Z,68.74
2019-02-19T21:23:51.615Z,67.93
2019-02-19T21:28:55.356Z,67.86
2019-02-19T21:33:59.267Z,67.24
2019-02-19T21:39:02.964Z,67.48
2019-02-19T21:44:06.681Z,68.51
2019-02-19T21:49:10.384Z,68.83
2019-02-19T21:54:13.989Z,68.73
2019-02-19T21:59:17.867Z,69.39
2019-02-19T22:04:21.475Z,71.05
2019-02-19T22:09:25.242Z,68.88
2019-02-19T22:14:29.013Z,68.94
2019-02-19T22:19:32.683Z,70.31
2019-02-19T22:24:37.444Z,70.03
2019-02-19T22:29:41.046Z,70.47
2019-02-19T22:34:44.539Z,70.92
2019-02-19T22:39:48.038Z,70.38
2019-02-19T22:44:51.696Z,70.68
2019-02-19T22:49:55.299Z,69.71
2019-02-19T22:55:16.293Z,69.10
2019-02-19T23:00:25.604Z,69.17
2019-02-19T23:05:29.387Z,68.90
2019-02-19T23:10:33.312Z,68.34
2019-02-19T23:15:37.183Z,69.03
2019-02-19T23:20:40.988Z,69.24
2019-02-19T23:25:44.521Z,69.89
2019-02-19T23:30:47.900Z,69.84
2019-02-19T23:35:55.557Z,70.77
2019-02-19T23:40:59.013Z,69.61
2019-02-19T23:46:02.844Z,69.73
2019-02-19T23:51:06.244Z,69.90
2019-02-19T23:56:09.680Z,70.43
